createdAt,value
2022-11-15T00:02:05.661Z,4.78
2022-11-15T00:05:07.184Z,6.43
2022-11-15T00:08:08.583Z,6.07
2022-11-15T00:11:11.575Z,5.80
2022-11-15T00:14:12.885Z,6.00
2022-11-15T00:17:14.121Z,5.53
2022-11-15T00:20:15.414Z,4.00
2022-11-15T00:23:17.408Z,3.35
2022-11-15T00:26:19.163Z,5.43
2022-11-15T00:29:20.394Z,4.10
2022-11-15T00:32:21.676Z,4.78
2022-11-15T00:35:23.191Z,4.20
2022-11-15T00:38:24.415Z,4.90
2022-11-15T00:41:25.656Z,3.95
2022-11-15T00:44:26.909Z,5.63
2022-11-15T00:47:28.144Z,4.68
2022-11-15T00:50:29.385Z,3.95
2022-11-15T00:53:31.281Z,4.55
2022-11-15T00:56:32.744Z,5.13
2022-11-15T00:59:34.064Z,5.85
2022-11-15T01:02:35.298Z,3.47
2022-11-15T01:05:38.099Z,5.78
2022-11-15T01:08:40.364Z,6.07
2022-11-15T01:11:41.769Z,5.95
2022-11-15T01:14:43.041Z,5.43
2022-11-15T01:17:44.281Z,4.07
2022-11-15T01:20:45.544Z,6.95
2022-11-15T01:23:46.822Z,4.07
2022-11-15T01:26:48.088Z,4.38
2022-11-15T01:29:49.322Z,4.25
2022-11-15T01:32:50.566Z,4.97
2022-11-15T01:35:51.849Z,4.00
2022-11-15T01:38:59.596Z,3.97
2022-11-15T01:42:00.976Z,4.05
2022-11-15T01:45:02.244Z,3.60
2022-11-15T01:48:03.649Z,5.38
2022-11-15T01:51:07.621Z,4.72
2022-11-15T01:54:10.960Z,3.95
2022-11-15T01:57:12.852Z,4.97
2022-11-15T02:00:14.746Z,3.72
2022-11-15T02:03:16.380Z,3.53
2022-11-15T02:06:17.705Z,5.47
2022-11-15T02:09:18.937Z,4.93
2022-11-15T02:12:21.368Z,5.88
2022-11-15T02:15:24.110Z,3.92
2022-11-15T02:18:48.446Z,4.60
2022-11-15T02:21:58.715Z,3.60
2022-11-15T02:25:18.646Z,5.43
2022-11-15T02:28:35.077Z,4.05
2022-11-15T02:31:54.847Z,6.35
2022-11-15T02:35:02.458Z,4.35
2022-11-15T02:38:17.943Z,5.30
2022-11-15T02:41:29.860Z,3.88
2022-11-15T02:44:37.750Z,5.53
2022-11-15T02:47:43.823Z,6.22
2022-11-15T02:50:46.071Z,3.47
2022-11-15T02:53:47.329Z,4.18
2022-11-15T02:56:49.128Z,4.60
2022-11-15T02:59:59.565Z,3.95
2022-11-15T03:03:26.800Z,3.80
2022-11-15T03:06:36.058Z,5.38
2022-11-15T03:09:46.473Z,4.25
2022-11-15T03:12:58.623Z,4.57
2022-11-15T03:16:05.228Z,4.78
2022-11-15T03:19:26.767Z,4.53
2022-11-15T03:22:30.029Z,3.72
2022-11-15T03:25:32.707Z,3.63
2022-11-15T03:28:43.294Z,3.67
2022-11-15T03:31:50.791Z,4.30
2022-11-15T03:34:52.499Z,3.00
2022-11-15T03:38:01.991Z,4.35
2022-11-15T03:41:07.721Z,4.72
2022-11-15T03:44:20.977Z,4.07
2022-11-15T03:47:28.401Z,4.22
2022-11-15T03:50:30.196Z,4.90
2022-11-15T03:53:33.004Z,3.78
2022-11-15T03:56:34.413Z,4.70
2022-11-15T03:59:35.666Z,3.50
2022-11-15T04:02:36.908Z,3.58
2022-11-15T04:05:38.141Z,5.38
2022-11-15T04:08:39.382Z,4.00
2022-11-15T04:11:40.660Z,4.68
2022-11-15T04:15:01.860Z,4.57
2022-11-15T04:18:03.205Z,3.83
2022-11-15T04:21:23.152Z,4.00
2022-11-15T04:24:24.364Z,5.30
2022-11-15T04:27:25.601Z,7.10
2022-11-15T04:30:26.821Z,5.13
2022-11-15T04:33:28.081Z,5.22
2022-11-15T04:36:48.137Z,3.97
2022-11-15T04:39:49.350Z,7.15
2022-11-15T04:42:50.601Z,13.88
2022-11-15T04:45:51.830Z,10.90
2022-11-15T04:48:58.240Z,9.65
2022-11-15T04:52:00.361Z,5.95
2022-11-15T04:55:07.775Z,5.97
2022-11-15T04:58:10.135Z,4.70
2022-11-15T05:01:12.983Z,6.65
2022-11-15T05:04:20.199Z,6.65
2022-11-15T05:07:21.566Z,4.95
2022-11-15T05:10:22.832Z,5.80
2022-11-15T05:13:24.116Z,6.63
2022-11-15T05:16:25.364Z,7.53
2022-11-15T05:19:26.603Z,5.90
2022-11-15T05:22:28.895Z,5.35
2022-11-15T05:25:30.141Z,4.55
2022-11-15T05:28:32.100Z,5.60
2022-11-15T05:31:33.356Z,5.80
2022-11-15T05:34:34.597Z,6.70
2022-11-15T05:37:35.835Z,7.72
2022-11-15T05:40:37.140Z,7.40
2022-11-15T05:43:39.269Z,5.78
2022-11-15T05:46:41.402Z,7.55
2022-11-15T05:49:44.518Z,6.05
2022-11-15T05:52:46.350Z,9.57
2022-11-15T05:55:47.878Z,6.72
2022-11-15T05:58:49.152Z,5.70
2022-11-15T06:01:50.554Z,8.35
2022-11-15T06:04:51.836Z,7.57
2022-11-15T06:07:53.429Z,9.43
2022-11-15T06:10:55.022Z,6.47
2022-11-15T06:13:57.134Z,6.63
2022-11-15T06:16:58.377Z,6.63
2022-11-15T06:19:59.679Z,5.80
2022-11-15T06:23:03.744Z,6.40
2022-11-15T06:26:05.052Z,7.50
2022-11-15T06:29:06.322Z,6.80
2022-11-15T06:32:07.815Z,5.20
2022-11-15T06:35:09.097Z,5.63
2022-11-15T06:38:10.844Z,11.75
2022-11-15T06:41:12.559Z,8.48
2022-11-15T06:44:13.783Z,7.10
2022-11-15T06:47:15.045Z,11.98
2022-11-15T06:50:16.324Z,6.85
2022-11-15T06:53:17.577Z,9.60
2022-11-15T06:56:18.813Z,8.68
2022-11-15T06:59:20.986Z,9.98
2022-11-15T07:02:22.279Z,6.75
2022-11-15T07:05:23.695Z,5.85
2022-11-15T07:08:25.131Z,8.50
2022-11-15T07:11:26.381Z,7.30
2022-11-15T07:14:27.618Z,8.82
2022-11-15T07:17:28.842Z,9.60
2022-11-15T07:20:30.289Z,6.95
2022-11-15T07:23:32.068Z,5.97
2022-11-15T07:26:33.528Z,6.43
2022-11-15T07:29:34.846Z,7.18
2022-11-15T07:32:36.132Z,5.10
2022-11-15T07:35:37.352Z,4.70
2022-11-15T07:38:42.797Z,4.95
2022-11-15T07:41:45.620Z,6.70
2022-11-15T07:44:46.856Z,6.40
2022-11-15T07:47:48.885Z,6.63
2022-11-15T07:50:50.153Z,5.40
2022-11-15T07:53:51.380Z,7.00
2022-11-15T07:56:52.629Z,5.78
2022-11-15T07:59:53.920Z,4.70
2022-11-15T08:03:01.959Z,6.05
2022-11-15T08:06:03.533Z,6.22
2022-11-15T08:09:04.770Z,4.43
2022-11-15T08:12:06.390Z,4.75
2022-11-15T08:15:07.765Z,5.05
2022-11-15T08:18:14.050Z,5.28
2022-11-15T08:21:18.636Z,4.63
2022-11-15T08:24:19.946Z,5.05
2022-11-15T08:27:21.253Z,4.57
2022-11-15T08:30:22.927Z,4.80
2022-11-15T08:33:24.824Z,4.88
2022-11-15T08:36:26.180Z,5.03
2022-11-15T08:39:27.598Z,4.47
2022-11-15T08:42:28.886Z,4.57
2022-11-15T08:45:30.744Z,5.28
2022-11-15T08:48:32.502Z,4.80
2022-11-15T08:51:33.986Z,4.28
2022-11-15T08:54:35.232Z,5.30
2022-11-15T08:57:36.961Z,5.15
2022-11-15T09:00:38.381Z,5.78
2022-11-15T09:03:40.686Z,4.65
2022-11-15T09:06:43.376Z,6.00
2022-11-15T09:09:44.855Z,7.10
2022-11-15T09:12:49.213Z,8.23
2022-11-15T09:15:50.463Z,9.40
2022-11-15T09:18:51.713Z,8.60
2022-11-15T09:21:53.840Z,6.63
2022-11-15T09:24:55.813Z,6.80
2022-11-15T09:27:57.997Z,5.10
2022-11-15T09:31:04.116Z,5.28
2022-11-15T09:34:05.389Z,6.05
2022-11-15T09:37:06.804Z,7.78
2022-11-15T09:40:10.748Z,5.68
2022-11-15T09:43:27.466Z,6.57
2022-11-15T09:46:56.130Z,5.30
2022-11-15T09:49:59.486Z,6.05
2022-11-15T09:53:01.410Z,5.72
2022-11-15T09:56:04.703Z,7.43
2022-11-15T09:59:05.947Z,4.70
2022-11-15T10:02:30.141Z,4.43
2022-11-15T10:05:32.769Z,6.47
2022-11-15T10:08:41.777Z,5.28
2022-11-15T10:11:43.225Z,5.45
2022-11-15T10:14:45.826Z,3.70
2022-11-15T10:18:00.426Z,6.57
2022-11-15T10:21:14.058Z,4.47
2022-11-15T10:24:19.495Z,5.15
2022-11-15T10:27:20.820Z,3.63
2022-11-15T10:30:22.175Z,4.38
2022-11-15T10:33:26.291Z,5.72
2022-11-15T10:36:27.639Z,3.83
2022-11-15T10:39:29.325Z,5.68
2022-11-15T10:42:30.680Z,3.67
2022-11-15T10:45:32.765Z,4.00
2022-11-15T10:48:34.240Z,3.50
2022-11-15T10:51:41.613Z,3.42
2022-11-15T10:54:45.309Z,3.85
2022-11-15T10:57:51.094Z,3.88
2022-11-15T11:00:53.855Z,3.55
2022-11-15T11:04:00.449Z,2.40
2022-11-15T11:07:01.814Z,3.15
2022-11-15T11:10:49.131Z,4.55
2022-11-15T11:13:40.803Z,4.63
2022-11-15T11:16:56.076Z,4.25
2022-11-15T11:20:19.521Z,4.05
2022-11-15T11:23:46.849Z,4.45
2022-11-15T11:26:59.999Z,4.85
2022-11-15T11:30:04.342Z,3.95
2022-11-15T11:33:15.006Z,2.60
2022-11-15T11:39:46.031Z,3.70
2022-11-15T11:43:04.054Z,2.47
2022-11-15T11:46:08.185Z,3.35
2022-11-15T11:52:27.728Z,3.60
2022-11-15T11:55:33.325Z,3.95
2022-11-15T11:58:36.584Z,2.88
2022-11-15T12:01:44.615Z,5.55
2022-11-15T12:04:49.326Z,3.97
2022-11-15T12:07:51.609Z,3.35
2022-11-15T12:11:02.139Z,6.82
2022-11-15T12:14:07.532Z,2.90
2022-11-15T12:17:12.701Z,4.85
2022-11-15T12:20:24.103Z,4.60
2022-11-15T12:23:32.732Z,3.95
2022-11-15T12:26:37.869Z,4.88
2022-11-15T12:29:42.608Z,4.10
2022-11-15T12:33:00.520Z,2.80
2022-11-15T12:36:05.939Z,2.70
2022-11-15T12:39:10.841Z,4.38
2022-11-15T12:42:32.170Z,2.70
2022-11-15T12:45:39.753Z,2.97
2022-11-15T12:48:41.014Z,4.47
2022-11-15T12:51:48.228Z,2.78
2022-11-15T12:54:51.166Z,2.50
2022-11-15T12:57:52.692Z,2.58
2022-11-15T13:00:54.041Z,2.45
2022-11-15T13:04:16.247Z,2.88
2022-11-15T13:07:43.749Z,2.53
2022-11-15T13:10:45.027Z,3.42
2022-11-15T13:13:47.917Z,3.38
2022-11-15T13:16:49.476Z,3.90
2022-11-15T13:19:56.590Z,3.65
2022-11-15T13:23:11.041Z,2.30
2022-11-15T13:26:17.553Z,2.88
2022-11-15T13:29:19.899Z,3.20
2022-11-15T13:32:21.828Z,4.65
2022-11-15T13:35:24.687Z,3.15
2022-11-15T13:38:25.903Z,3.53
2022-11-15T13:41:31.977Z,3.50
2022-11-15T13:44:34.330Z,2.55
2022-11-15T13:47:35.720Z,3.17
2022-11-15T13:50:38.966Z,3.10
2022-11-15T13:53:41.851Z,2.88
2022-11-15T13:56:45.034Z,2.83
2022-11-15T13:59:46.240Z,5.88
2022-11-15T14:02:47.570Z,3.60
2022-11-15T14:06:28.067Z,3.55
2022-11-15T14:09:33.973Z,6.72
2022-11-15T14:12:35.768Z,3.75
2022-11-15T14:15:39.758Z,8.05
2022-11-15T14:18:45.586Z,13.77
2022-11-15T14:22:05.675Z,9.57
2022-11-15T14:25:20.596Z,3.33
2022-11-15T14:28:21.835Z,3.72
2022-11-15T14:31:23.186Z,2.53
2022-11-15T14:34:24.448Z,2.88
2022-11-15T14:37:32.284Z,3.45
2022-11-15T14:40:33.500Z,4.50
2022-11-15T14:43:34.740Z,3.45
2022-11-15T14:46:35.967Z,3.85
2022-11-15T14:49:37.216Z,5.35
2022-11-15T14:52:38.501Z,6.32
2022-11-15T14:55:39.759Z,3.95
2022-11-15T14:58:41.290Z,5.30
2022-11-15T15:01:42.552Z,5.43
2022-11-15T15:04:43.875Z,5.15
2022-11-15T15:07:45.690Z,3.78
2022-11-15T15:10:47.109Z,6.20
2022-11-15T15:13:48.470Z,4.57
2022-11-15T15:16:49.758Z,4.97
2022-11-15T15:19:51.016Z,5.60
2022-11-15T15:22:52.287Z,4.55
2022-11-15T15:25:54.065Z,5.25
2022-11-15T15:28:55.377Z,5.03
2022-11-15T15:31:56.658Z,7.88
2022-11-15T15:34:57.878Z,5.88
2022-11-15T15:37:59.655Z,6.13
2022-11-15T15:41:02.848Z,5.15
2022-11-15T15:44:04.085Z,6.60
2022-11-15T15:47:11.901Z,5.88
2022-11-15T15:50:18.639Z,5.50
2022-11-15T15:53:20.013Z,4.78
2022-11-15T15:56:22.746Z,5.28
2022-11-15T15:59:24.058Z,8.43
2022-11-15T16:02:25.497Z,5.30
2022-11-15T16:05:26.771Z,4.63
2022-11-15T16:08:31.961Z,5.75
2022-11-15T16:11:39.614Z,4.30
2022-11-15T16:14:40.872Z,3.72
2022-11-15T16:17:44.856Z,4.10
2022-11-15T16:20:48.460Z,5.00
2022-11-15T16:23:49.720Z,3.95
2022-11-15T16:26:51.616Z,6.80
2022-11-15T16:29:52.882Z,17.55
2022-11-15T16:32:54.801Z,15.68
2022-11-15T16:35:56.171Z,12.18
2022-11-15T16:38:57.682Z,13.95
2022-11-15T16:41:59.590Z,11.07
2022-11-15T16:45:01.004Z,8.57
2022-11-15T16:48:02.447Z,10.05
2022-11-15T16:51:04.897Z,5.18
2022-11-15T16:54:06.150Z,8.43
2022-11-15T16:57:08.728Z,8.93
2022-11-15T17:00:16.551Z,9.70
2022-11-15T17:03:17.838Z,10.80
2022-11-15T17:06:19.158Z,7.50
2022-11-15T17:09:24.361Z,5.03
2022-11-15T17:12:25.663Z,7.75
2022-11-15T17:15:27.049Z,9.48
2022-11-15T17:18:28.371Z,10.23
2022-11-15T17:21:33.584Z,11.52
2022-11-15T17:24:35.118Z,7.13
2022-11-15T17:27:36.613Z,8.48
2022-11-15T17:30:40.707Z,5.15
2022-11-15T17:33:41.969Z,9.15
2022-11-15T17:36:43.214Z,11.07
2022-11-15T17:39:44.468Z,5.20
2022-11-15T17:42:45.734Z,4.20
2022-11-15T17:45:46.988Z,10.65
2022-11-15T17:48:49.125Z,4.53
2022-11-15T17:51:50.461Z,4.43
2022-11-15T17:54:51.737Z,5.53
2022-11-15T17:57:53.003Z,4.35
2022-11-15T18:00:54.327Z,4.47
2022-11-15T18:03:55.982Z,3.90
2022-11-15T18:06:57.338Z,4.40
2022-11-15T18:09:58.633Z,5.22
2022-11-15T18:12:59.886Z,4.15
2022-11-15T18:16:04.314Z,6.43
2022-11-15T18:19:12.966Z,6.95
2022-11-15T18:22:14.249Z,7.38
2022-11-15T18:25:16.217Z,5.55
2022-11-15T18:28:17.450Z,6.60
2022-11-15T18:31:22.905Z,9.60
2022-11-15T18:34:25.389Z,7.68
2022-11-15T18:37:26.771Z,7.57
2022-11-15T18:40:28.032Z,8.07
2022-11-15T18:43:29.298Z,7.68
2022-11-15T18:46:32.098Z,7.82
2022-11-15T18:49:33.349Z,7.07
2022-11-15T18:52:34.632Z,6.68
2022-11-15T18:55:35.909Z,6.43
2022-11-15T18:58:38.896Z,6.43
2022-11-15T19:01:41.404Z,6.38
2022-11-15T19:04:42.666Z,6.60
2022-11-15T19:07:47.292Z,9.40
2022-11-15T19:10:48.528Z,8.00
2022-11-15T19:13:53.099Z,7.15
2022-11-15T19:16:54.908Z,5.18
2022-11-15T19:19:56.178Z,5.50
2022-11-15T19:22:57.554Z,4.03
2022-11-15T19:25:59.746Z,4.15
2022-11-15T19:29:01.612Z,5.30
2022-11-15T19:32:03.904Z,6.35
2022-11-15T19:35:05.425Z,4.95
2022-11-15T19:38:06.669Z,4.88
2022-11-15T19:41:12.337Z,8.45
2022-11-15T19:44:13.929Z,7.63
2022-11-15T19:47:15.236Z,6.07
2022-11-15T19:50:16.717Z,7.22
2022-11-15T19:53:18.539Z,10.02
2022-11-15T19:56:20.323Z,8.30
2022-11-15T19:59:21.701Z,7.57
2022-11-15T20:02:22.937Z,5.90
2022-11-15T20:05:24.332Z,7.20
2022-11-15T20:08:25.604Z,6.68
2022-11-15T20:11:27.480Z,8.45
2022-11-15T20:14:30.239Z,11.90
2022-11-15T20:17:31.525Z,32.35
2022-11-15T20:20:32.939Z,23.88
2022-11-15T20:23:34.196Z,19.95
2022-11-15T20:26:35.605Z,17.30
2022-11-15T20:29:37.607Z,18.23
2022-11-15T20:32:41.370Z,14.73
2022-11-15T20:35:43.824Z,11.32
2022-11-15T20:38:45.094Z,12.82
2022-11-15T20:41:46.394Z,11.07
2022-11-15T20:44:47.662Z,11.63
2022-11-15T20:47:48.924Z,10.82
2022-11-15T20:50:50.245Z,9.75
2022-11-15T20:53:51.527Z,9.25
2022-11-15T20:56:52.766Z,8.80
2022-11-15T20:59:54.066Z,8.30
2022-11-15T21:02:55.321Z,5.57
2022-11-15T21:05:56.587Z,6.78
2022-11-15T21:09:16.460Z,6.68
2022-11-15T21:12:19.025Z,7.88
2022-11-15T21:15:20.323Z,7.53
2022-11-15T21:18:21.606Z,6.65
2022-11-15T21:21:22.954Z,4.60
2022-11-15T21:24:24.702Z,5.03
2022-11-15T21:27:26.371Z,7.07
2022-11-15T21:30:27.840Z,5.93
2022-11-15T21:33:29.141Z,6.68
2022-11-15T21:36:30.637Z,6.28
2022-11-15T21:39:31.922Z,6.93
2022-11-15T21:42:33.152Z,7.00
2022-11-15T21:45:34.419Z,6.13
2022-11-15T21:48:36.029Z,5.50
2022-11-15T21:51:37.516Z,5.18
2022-11-15T21:54:40.896Z,5.32
2022-11-15T21:57:42.141Z,5.45
2022-11-15T22:01:02.197Z,5.45
2022-11-15T22:04:03.690Z,6.60
2022-11-15T22:07:04.978Z,6.28
2022-11-15T22:10:06.616Z,7.40
2022-11-15T22:13:07.871Z,5.00
2022-11-15T22:16:09.536Z,6.75
2022-11-15T22:19:10.854Z,6.72
2022-11-15T22:22:12.145Z,5.88
2022-11-15T22:25:13.442Z,5.18
2022-11-15T22:28:14.788Z,5.82
2022-11-15T22:31:16.212Z,6.32
2022-11-15T22:34:17.539Z,9.32
2022-11-15T22:37:20.949Z,5.05
2022-11-15T22:40:22.674Z,7.22
2022-11-15T22:43:25.186Z,5.13
2022-11-15T22:46:27.750Z,5.22
2022-11-15T22:49:29.069Z,8.25
2022-11-15T22:52:30.365Z,7.05
2022-11-15T22:55:31.653Z,5.82
2022-11-15T22:58:33.808Z,5.90
2022-11-15T23:01:35.306Z,6.18
2022-11-15T23:04:36.585Z,7.00
2022-11-15T23:07:38.051Z,4.38
2022-11-15T23:10:57.941Z,4.07
2022-11-15T23:13:59.377Z,5.90
2022-11-15T23:17:00.661Z,4.93
2022-11-15T23:20:16.776Z,6.53
2022-11-15T23:23:23.266Z,6.28
2022-11-15T23:26:24.547Z,5.30
2022-11-15T23:29:26.541Z,8.45
2022-11-15T23:32:46.759Z,5.45
2022-11-15T23:35:54.841Z,5.82
2022-11-15T23:38:56.536Z,6.60
2022-11-15T23:41:57.873Z,5.15
2022-11-15T23:44:59.190Z,5.85
2022-11-15T23:48:01.631Z,5.18
2022-11-15T23:51:03.113Z,5.57
2022-11-15T23:54:04.492Z,7.13
2022-11-15T23:57:08.953Z,6.05
